Time;durP1;ratioP1;P1;durP2;ratioP2;P2;SDS_P1;SDS_P2;PMS_P1;PMS_P2;Temp;Humidity;BMP_temperature;BMP_pressure;BME280_temperature;BME280_humidity;BME280_pressure;Samples;Min_cycle;Max_cycle;Signal;HPM_P1;HPM_P2
2022/08/08 00:00:13;;;;;;;;;;;;;;;;;;5032972;28;20026;-73
2022/08/08 00:02:57;;;;;;;14.82;8.82;;;;;;;;;;5026666;28;19913;-77
2022/08/08 00:05:27;;;;;;;11.93;7.55;;;;;;;;;;5019137;28;20077;-74
2022/08/08 00:08:00;;;;;;;14.38;7.50;;;;;;;;;;5031407;28;20481;-79
2022/08/08 00:10:34;;;;;;;14.60;8.55;;;;;;;;;;5031172;28;20032;-74
2022/08/08 00:13:18;;;;;;;13.93;7.70;;;;;;;;;;5029755;28;20155;-77
2022/08/08 00:15:46;;;;;;;16.42;7.78;;;;;;;;;;5047574;28;20128;-77
2022/08/08 00:18:14;;;;;;;11.68;7.40;;;;;;;;;;5031626;28;20446;-73
2022/08/08 00:20:48;;;;;;;12.25;7.53;;;;;;;;;;5048000;28;20025;-74
2022/08/08 00:23:22;;;;;;;21.38;8.38;;;;;;;;;;5030769;28;20449;-77
2022/08/08 00:25:50;;;;;;;13.10;7.68;;;;;;;;;;5032679;28;20523;-75
2022/08/08 00:28:18;;;;;;;15.15;8.35;;;;;;;;;;5052083;28;20506;-75
2022/08/08 00:30:46;;;;;;;10.68;7.00;;;;;;;;;;5031414;28;20436;-74
2022/08/08 00:33:15;;;;;;;12.88;7.60;;;;;;;;;;5032073;28;20092;-75
2022/08/08 00:35:45;;;;;;;14.32;7.60;;;;;;;;;;5032039;28;20037;-75
2022/08/08 00:38:16;;;;;;;12.35;7.90;;;;;;;;;;5031922;28;20021;-78
2022/08/08 00:41:00;;;;;;;12.07;7.80;;;;;;;;;;5032656;28;20363;-77
2022/08/08 00:43:44;;;;;;;12.10;7.30;;;;;;;;;;5046090;28;20474;-78
2022/08/08 00:46:33;;;;;;;11.43;7.00;;;;;;;;;;5031985;28;20033;-77
2022/08/08 00:49:17;;;;;;;12.55;8.07;;;;;;;;;;5030896;28;20029;-78
2022/08/08 00:51:58;;;;;;;17.05;8.68;;;;;;;;;;5030482;28;20026;-77
2022/08/08 00:54:36;;;;;;;14.10;8.05;;;;;;;;;;5031201;28;20025;-78
2022/08/08 00:57:10;;;;;;;10.98;7.38;;;;;;;;;;5066691;28;20016;-76
2022/08/08 00:59:54;;;;;;;11.77;7.30;;;;;;;;;;5011762;28;20034;-75
2022/08/08 01:02:38;;;;;;;14.77;7.35;;;;;;;;;;5044704;28;20068;-75
2022/08/08 01:05:25;;;;;;;13.68;7.93;;;;;;;;;;5034717;28;20489;-74
2022/08/08 01:07:57;;;;;;;17.35;8.57;;;;;;;;;;5035467;28;20402;-75
2022/08/08 01:10:41;;;;;;;14.60;7.28;;;;;;;;;;5036142;28;20104;-76
2022/08/08 01:13:15;;;;;;;18.73;8.48;;;;;;;;;;5037434;28;20025;-76
2022/08/08 01:15:57;;;;;;;14.10;8.40;;;;;;;;;;5049771;28;20037;-75
2022/08/08 01:18:32;;;;;;;16.05;8.13;;;;;;;;;;5049668;28;20473;-79
2022/08/08 01:21:09;;;;;;;14.85;7.75;;;;;;;;;;5035177;28;20026;-74
2022/08/08 01:23:53;;;;;;;13.82;8.65;;;;;;;;;;5034039;28;20448;-74
2022/08/08 01:26:25;;;;;;;14.80;7.30;;;;;;;;;;5035314;28;20064;-76
2022/08/08 01:29:09;;;;;;;8.52;7.20;;;;;;;;;;5048098;28;20024;-74
2022/08/08 01:31:53;;;;;;;14.82;7.82;;;;;;;;;;5042925;28;20038;-77
2022/08/08 01:34:24;;;;;;;10.00;6.95;;;;;;;;;;5035734;28;20392;-75
2022/08/08 01:36:49;;;;;;;13.23;7.38;;;;;;;;;;5049762;28;20104;-74
2022/08/08 01:39:22;;;;;;;18.35;8.13;;;;;;;;;;5034559;28;20060;-77
2022/08/08 01:42:00;;;;;;;15.20;7.68;;;;;;;;;;5034196;28;20350;-75
2022/08/08 01:44:52;;;;;;;12.65;7.57;;;;;;;;;;5034793;28;20104;-78
2022/08/08 01:47:26;;;;;;;16.25;7.80;;;;;;;;;;5033538;28;20095;-74
2022/08/08 01:50:07;;;;;;;12.15;7.75;;;;;;;;;;5032819;28;20031;-75
2022/08/08 01:52:32;;;;;;;14.07;7.35;;;;;;;;;;5034240;28;20026;-76
2022/08/08 01:55:00;;;;;;;13.20;6.88;;;;;;;;;;5033152;28;20031;-75
2022/08/08 01:57:31;;;;;;;10.82;8.05;;;;;;;;;;5034159;28;20478;-74
2022/08/08 02:00:02;;;;;;;9.82;6.50;;;;;;;;;;5035326;28;20026;-78
2022/08/08 02:02:47;;;;;;;14.52;7.82;;;;;;;;;;5034278;28;20025;-77
2022/08/08 02:05:28;;;;;;;21.85;8.18;;;;;;;;;;5034875;28;20052;-77
2022/08/08 02:07:56;;;;;;;13.82;7.10;;;;;;;;;;5034348;28;20017;-74
2022/08/08 02:10:21;;;;;;;13.13;6.75;;;;;;;;;;5049769;28;20118;-74
2022/08/08 02:12:52;;;;;;;8.63;6.50;;;;;;;;;;5050681;28;20021;-76
2022/08/08 02:15:26;;;;;;;12.70;7.43;;;;;;;;;;5034196;28;20021;-77
2022/08/08 02:17:55;;;;;;;9.90;6.63;;;;;;;;;;5014084;28;20034;-76
2022/08/08 02:20:38;;;;;;;11.48;7.22;;;;;;;;;;5034026;28;20029;-78
2022/08/08 02:23:09;;;;;;;9.00;6.32;;;;;;;;;;5033883;28;20494;-79
2022/08/08 02:25:53;;;;;;;12.07;7.25;;;;;;;;;;5034303;28;20405;-78
2022/08/08 02:28:38;;;;;;;13.57;6.82;;;;;;;;;;5041752;28;20013;-75
2022/08/08 02:31:03;;;;;;;10.93;6.45;;;;;;;;;;5033830;28;20033;-79
2022/08/08 02:33:31;;;;;;;10.60;6.18;;;;;;;;;;5032726;28;20028;-76
2022/08/08 02:36:15;;;;;;;9.68;5.85;;;;;;;;;;5033217;28;20575;-79
2022/08/08 02:38:58;;;;;;;8.52;7.35;;;;;;;;;;5034032;28;20504;-77
2022/08/08 02:41:38;;;;;;;9.77;5.93;;;;;;;;;;5033997;28;20429;-74
2022/08/08 02:44:06;;;;;;;11.50;6.10;;;;;;;;;;5033188;28;20036;-74
2022/08/08 02:46:31;;;;;;;14.23;5.97;;;;;;;;;;5031330;28;20032;-78
2022/08/08 02:49:15;;;;;;;7.55;5.53;;;;;;;;;;5033704;28;20033;-78
2022/08/08 02:51:59;;;;;;;11.05;6.28;;;;;;;;;;5032786;28;20026;-79
2022/08/08 02:54:41;;;;;;;11.85;6.80;;;;;;;;;;5033075;28;20099;-79
2022/08/08 02:57:24;;;;;;;8.40;5.50;;;;;;;;;;5053682;28;20033;-78
2022/08/08 03:00:16;;;;;;;12.00;6.95;;;;;;;;;;5052758;28;20045;-74
2022/08/08 03:03:00;;;;;;;8.52;6.18;;;;;;;;;;5045743;28;20506;-74
2022/08/08 03:05:31;;;;;;;9.77;6.15;;;;;;;;;;5043292;28;20050;-74
2022/08/08 03:08:15;;;;;;;11.52;6.75;;;;;;;;;;5027550;28;20486;-78
2022/08/08 03:11:00;;;;;;;9.85;5.93;;;;;;;;;;5019748;28;20046;-73
2022/08/08 03:13:41;;;;;;;7.68;5.78;;;;;;;;;;5036177;28;20017;-74
2022/08/08 03:16:19;;;;;;;12.02;6.32;;;;;;;;;;5032433;28;20029;-76
2022/08/08 03:18:53;;;;;;;10.18;6.72;;;;;;;;;;5031282;28;20027;-80
2022/08/08 03:21:18;;;;;;;12.63;6.65;;;;;;;;;;5032413;28;20021;-76
2022/08/08 03:23:44;;;;;;;12.85;6.90;;;;;;;;;;5032501;28;20034;-76
2022/08/08 03:26:09;;;;;;;10.32;6.53;;;;;;;;;;5032844;28;20029;-74
2022/08/08 03:28:39;;;;;;;10.38;6.63;;;;;;;;;;5033188;28;20033;-75
2022/08/08 03:33:17;;;;;;;11.65;7.75;;;;;;;;;;5031555;28;20029;-78
2022/08/08 03:33:50;;;;;;;10.02;6.90;;;;;;;;;;5032613;28;20026;-75
2022/08/08 03:36:16;;;;;;;13.07;6.95;;;;;;;;;;5031494;28;20470;-78
2022/08/08 03:38:45;;;;;;;11.30;6.80;;;;;;;;;;5047643;28;20026;-78
2022/08/08 03:41:10;;;;;;;11.00;6.60;;;;;;;;;;5032694;28;20024;-78
2022/08/08 03:43:35;;;;;;;12.07;6.77;;;;;;;;;;5031644;28;20112;-74
2022/08/08 03:46:04;;;;;;;10.82;6.68;;;;;;;;;;5032163;28;20612;-78
2022/08/08 03:48:29;;;;;;;12.48;7.57;;;;;;;;;;5032107;28;20064;-75
2022/08/08 03:50:55;;;;;;;9.98;6.03;;;;;;;;;;5027002;28;20065;-74
2022/08/08 03:53:20;;;;;;;16.90;6.72;;;;;;;;;;5015323;28;20564;-78
2022/08/08 03:55:48;;;;;;;10.75;6.00;;;;;;;;;;5033473;28;20030;-74
2022/08/08 03:58:18;;;;;;;9.25;6.30;;;;;;;;;;5032548;28;20021;-74
2022/08/08 04:00:48;;;;;;;12.55;6.85;;;;;;;;;;5031818;28;20030;-78
2022/08/08 04:03:13;;;;;;;10.27;6.90;;;;;;;;;;5032212;28;20525;-79
2022/08/08 04:05:38;;;;;;;10.27;6.28;;;;;;;;;;5032107;28;20071;-79
2022/08/08 04:08:07;;;;;;;6.97;5.07;;;;;;;;;;5030556;28;20473;-77
2022/08/08 04:10:34;;;;;;;7.45;5.38;;;;;;;;;;5033078;28;20282;-78
2022/08/08 04:13:00;;;;;;;9.25;5.20;;;;;;;;;;5049873;28;20021;-73
2022/08/08 04:15:25;;;;;;;8.63;4.60;;;;;;;;;;5022777;28;20480;-78
2022/08/08 04:17:51;;;;;;;5.60;4.68;;;;;;;;;;5031743;28;20057;-74
2022/08/08 04:20:16;;;;;;;9.35;5.00;;;;;;;;;;5032309;28;20021;-78
2022/08/08 04:22:41;;;;;;;8.63;4.68;;;;;;;;;;5032040;28;20484;-79
2022/08/08 04:25:09;;;;;;;6.90;4.50;;;;;;;;;;5032594;28;20068;-75
2022/08/08 04:27:36;;;;;;;8.57;4.63;;;;;;;;;;5035405;28;20029;-74
2022/08/08 04:30:02;;;;;;;5.63;4.43;;;;;;;;;;5041109;28;20049;-75
2022/08/08 04:32:28;;;;;;;5.50;4.32;;;;;;;;;;5030165;28;20036;-75
2022/08/08 04:34:53;;;;;;;6.95;4.38;;;;;;;;;;5029916;28;20112;-76
2022/08/08 04:37:18;;;;;;;5.32;3.42;;;;;;;;;;5031207;28;20028;-74
2022/08/08 04:39:43;;;;;;;5.93;4.43;;;;;;;;;;5035023;28;20024;-74
2022/08/08 04:42:11;;;;;;;6.80;4.25;;;;;;;;;;5033596;28;20017;-77
2022/08/08 04:44:37;;;;;;;6.40;3.90;;;;;;;;;;5025646;28;20044;-74
2022/08/08 04:47:02;;;;;;;6.13;4.68;;;;;;;;;;5035139;28;20116;-75
2022/08/08 04:49:28;;;;;;;6.90;4.65;;;;;;;;;;5035788;28;20374;-78
2022/08/08 04:51:53;;;;;;;6.55;4.47;;;;;;;;;;5034671;28;20018;-77
2022/08/08 04:54:18;;;;;;;7.20;4.38;;;;;;;;;;5035010;28;20029;-75
2022/08/08 04:56:43;;;;;;;6.35;4.70;;;;;;;;;;5051121;28;20064;-75
2022/08/08 04:59:08;;;;;;;7.35;4.68;;;;;;;;;;5021997;28;20049;-74
2022/08/08 05:01:34;;;;;;;8.38;4.25;;;;;;;;;;5024780;28;20025;-76
2022/08/08 05:03:59;;;;;;;5.55;4.00;;;;;;;;;;5031264;28;20027;-78
2022/08/08 05:06:24;;;;;;;6.57;5.03;;;;;;;;;;5034222;28;20061;-78
2022/08/08 05:08:52;;;;;;;6.50;4.53;;;;;;;;;;5034093;28;20116;-74
2022/08/08 05:11:18;;;;;;;8.02;4.60;;;;;;;;;;5034628;28;20025;-78
2022/08/08 05:13:43;;;;;;;8.20;5.40;;;;;;;;;;5035006;28;20155;-77
2022/08/08 05:16:09;;;;;;;7.67;4.77;;;;;;;;;;5035587;28;20052;-74
2022/08/08 05:18:37;;;;;;;10.93;5.55;;;;;;;;;;5034398;28;20684;-77
2022/08/08 05:21:03;;;;;;;9.48;5.78;;;;;;;;;;5042827;28;20040;-78
2022/08/08 05:23:29;;;;;;;10.07;5.35;;;;;;;;;;5034340;28;20470;-78
2022/08/08 05:25:58;;;;;;;7.65;5.15;;;;;;;;;;5033543;28;20044;-78
2022/08/08 05:28:24;;;;;;;9.57;5.03;;;;;;;;;;5034247;28;20525;-79
2022/08/08 05:30:52;;;;;;;10.07;5.53;;;;;;;;;;5049016;28;20152;-78
2022/08/08 05:33:17;;;;;;;9.52;5.55;;;;;;;;;;5030415;28;20022;-75
2022/08/08 05:35:43;;;;;;;10.27;5.63;;;;;;;;;;5034113;28;20040;-80
2022/08/08 05:38:12;;;;;;;10.13;5.82;;;;;;;;;;5033529;28;20022;-79
2022/08/08 05:40:38;;;;;;;9.70;5.00;;;;;;;;;;5033673;28;20091;-78
2022/08/08 05:43:09;;;;;;;11.80;6.28;;;;;;;;;;5032617;28;20041;-79
2022/08/08 05:45:35;;;;;;;9.80;5.18;;;;;;;;;;5035340;28;20040;-77
2022/08/08 05:48:00;;;;;;;10.05;5.63;;;;;;;;;;5034302;28;20025;-74
2022/08/08 05:50:27;;;;;;;9.18;5.32;;;;;;;;;;5030799;28;20083;-77
2022/08/08 05:52:53;;;;;;;15.00;5.93;;;;;;;;;;5035122;28;20036;-78
2022/08/08 05:55:19;;;;;;;11.00;6.25;;;;;;;;;;5041084;28;20023;-76
2022/08/08 05:57:46;;;;;;;10.52;4.22;;;;;;;;;;5033330;28;20443;-74
2022/08/08 06:00:11;;;;;;;9.32;3.50;;;;;;;;;;5048791;28;20129;-76
2022/08/08 06:05:21;;;;;;;17.02;5.57;;;;;;;;;;5033021;28;20560;-75
2022/08/08 06:07:48;;;;;;;20.85;6.90;;;;;;;;;;5049565;28;20017;-75
2022/08/08 06:10:13;;;;;;;16.27;8.05;;;;;;;;;;5034695;28;20034;-75
2022/08/08 06:12:40;;;;;;;12.98;6.93;;;;;;;;;;5033116;28;20076;-75
2022/08/08 06:15:06;;;;;;;13.73;7.75;;;;;;;;;;5034409;28;20056;-79
2022/08/08 06:17:37;;;;;;;16.00;7.45;;;;;;;;;;5048749;28;20033;-78
2022/08/08 06:20:03;;;;;;;14.40;6.85;;;;;;;;;;5033419;28;20028;-79
2022/08/08 06:22:32;;;;;;;17.13;8.15;;;;;;;;;;5034043;28;20021;-79
2022/08/08 06:24:57;;;;;;;16.10;9.70;;;;;;;;;;5033278;28;20033;-77
2022/08/08 06:27:43;;;;;;;21.23;9.38;;;;;;;;;;5047152;28;20025;-75
2022/08/08 06:30:10;;;;;;;19.25;8.57;;;;;;;;;;5052083;28;20044;-78
2022/08/08 06:32:47;;;;;;;14.30;7.40;;;;;;;;;;5046060;28;20041;-78
2022/08/08 06:35:14;;;;;;;19.85;9.40;;;;;;;;;;5033340;28;20033;-77
2022/08/08 06:37:43;;;;;;;18.30;10.18;;;;;;;;;;5033391;28;20021;-75
2022/08/08 06:40:13;;;;;;;21.45;10.15;;;;;;;;;;5032746;28;20108;-75
2022/08/08 06:42:39;;;;;;;16.45;7.93;;;;;;;;;;5029747;28;20056;-75
2022/08/08 06:45:05;;;;;;;23.38;10.07;;;;;;;;;;5033711;28;20504;-79
2022/08/08 06:47:31;;;;;;;14.50;6.95;;;;;;;;;;5047357;28;20036;-74
2022/08/08 06:49:56;;;;;;;22.35;10.60;;;;;;;;;;5033379;28;20017;-78
2022/08/08 06:52:22;;;;;;;19.33;8.15;;;;;;;;;;5032748;28;20033;-75
2022/08/08 06:54:47;;;;;;;26.58;10.23;;;;;;;;;;5036030;28;20385;-78
2022/08/08 06:57:13;;;;;;;15.38;6.88;;;;;;;;;;5035600;28;20040;-74
2022/08/08 06:59:38;;;;;;;29.13;9.65;;;;;;;;;;5032421;28;20048;-74
2022/08/08 07:02:06;;;;;;;17.35;8.70;;;;;;;;;;5052221;28;20028;-74
2022/08/08 07:04:48;;;;;;;16.65;7.10;;;;;;;;;;5040427;28;20045;-76
2022/08/08 07:07:17;;;;;;;11.38;5.80;;;;;;;;;;5033106;28;20040;-74
2022/08/08 07:09:59;;;;;;;25.60;9.07;;;;;;;;;;5032571;28;20435;-78
2022/08/08 07:12:31;;;;;;;18.80;6.95;;;;;;;;;;5047764;28;20028;-78
2022/08/08 07:15:03;;;;;;;12.52;5.47;;;;;;;;;;5032002;28;20026;-78
2022/08/08 07:17:30;;;;;;;19.27;7.10;;;;;;;;;;5040032;28;20040;-78
2022/08/08 07:20:03;;;;;;;15.07;5.75;;;;;;;;;;5037738;28;20108;-75
2022/08/08 07:22:48;;;;;;;11.73;5.32;;;;;;;;;;5047370;28;20036;-78
2022/08/08 07:25:14;;;;;;;14.95;5.43;;;;;;;;;;5011978;28;20042;-76
2022/08/08 07:27:40;;;;;;;16.10;4.80;;;;;;;;;;5011321;28;20026;-75
2022/08/08 07:30:06;;;;;;;20.75;6.43;;;;;;;;;;5031288;28;20529;-75
2022/08/08 07:32:31;;;;;;;9.85;4.75;;;;;;;;;;5031934;28;20155;-78
2022/08/08 07:34:58;;;;;;;11.20;5.22;;;;;;;;;;5033394;28;20029;-75
2022/08/08 07:37:24;;;;;;;15.70;4.82;;;;;;;;;;5047903;28;20389;-79
2022/08/08 07:39:50;;;;;;;12.75;4.40;;;;;;;;;;5031767;28;20611;-78
2022/08/08 07:42:16;;;;;;;10.52;5.72;;;;;;;;;;5031018;28;20041;-73
2022/08/08 07:44:42;;;;;;;19.25;5.05;;;;;;;;;;5033081;28;20056;-77
2022/08/08 07:47:08;;;;;;;15.10;5.28;;;;;;;;;;5032250;28;20396;-77
2022/08/08 07:49:33;;;;;;;14.40;5.15;;;;;;;;;;5032093;28;20428;-75
2022/08/08 07:51:59;;;;;;;18.00;6.38;;;;;;;;;;5043074;28;20098;-74
2022/08/08 07:54:31;;;;;;;9.43;4.35;;;;;;;;;;5050478;28;20071;-74
2022/08/08 07:57:15;;;;;;;8.87;4.43;;;;;;;;;;5037447;28;20056;-77
2022/08/08 08:00:04;;;;;;;9.35;4.93;;;;;;;;;;5046962;28;20408;-75
2022/08/08 08:02:39;;;;;;;8.50;4.15;;;;;;;;;;5024275;28;20033;-75
2022/08/08 08:05:10;;;;;;;9.23;4.03;;;;;;;;;;5032956;28;20029;-75
2022/08/08 08:07:36;;;;;;;11.55;5.07;;;;;;;;;;5031930;28;20025;-75
2022/08/08 08:10:01;;;;;;;6.22;3.58;;;;;;;;;;5031827;28;20033;-75
2022/08/08 08:12:26;;;;;;;8.63;3.80;;;;;;;;;;5031750;28;20041;-74
2022/08/08 08:14:54;;;;;;;8.10;4.10;;;;;;;;;;5022241;28;20389;-77
2022/08/08 08:17:24;;;;;;;14.02;4.47;;;;;;;;;;5033978;28;20275;-78
2022/08/08 08:19:56;;;;;;;10.25;3.17;;;;;;;;;;5036873;28;20099;-77
2022/08/08 08:22:21;;;;;;;7.78;3.63;;;;;;;;;;5035314;28;20037;-77
2022/08/08 08:24:46;;;;;;;3.88;3.55;;;;;;;;;;5035178;28;20095;-74
2022/08/08 08:27:11;;;;;;;8.05;3.60;;;;;;;;;;5050943;28;20038;-76
2022/08/08 08:29:37;;;;;;;8.93;3.72;;;;;;;;;;5050426;28;20100;-77
2022/08/08 08:32:03;;;;;;;5.93;3.35;;;;;;;;;;5033561;28;20103;-75
2022/08/08 08:34:28;;;;;;;7.00;3.30;;;;;;;;;;5034721;28;20057;-74
2022/08/08 08:36:57;;;;;;;7.38;4.22;;;;;;;;;;5036056;28;20021;-75
2022/08/08 08:39:22;;;;;;;11.82;4.70;;;;;;;;;;5050887;28;20550;-77
2022/08/08 08:41:48;;;;;;;7.38;3.22;;;;;;;;;;5035094;28;20021;-75
2022/08/08 08:44:14;;;;;;;7.40;3.00;;;;;;;;;;5034789;28;20060;-76
2022/08/08 08:46:40;;;;;;;7.88;3.15;;;;;;;;;;5035188;28;20029;-74
2022/08/08 08:49:05;;;;;;;6.13;2.92;;;;;;;;;;5034378;28;20033;-74
2022/08/08 08:51:34;;;;;;;4.95;2.72;;;;;;;;;;5034477;28;20130;-77
2022/08/08 08:54:01;;;;;;;8.73;4.38;;;;;;;;;;5035746;28;20025;-75
2022/08/08 08:56:30;;;;;;;5.32;3.22;;;;;;;;;;5032782;28;20037;-78
2022/08/08 08:58:56;;;;;;;5.57;3.15;;;;;;;;;;5036267;28;20122;-74
2022/08/08 09:01:25;;;;;;;5.43;2.67;;;;;;;;;;5035890;28;20009;-77
2022/08/08 09:03:51;;;;;;;5.57;2.97;;;;;;;;;;5034481;28;20041;-79
2022/08/08 09:06:24;;;;;;;7.05;2.85;;;;;;;;;;5034803;28;20103;-79
2022/08/08 09:08:53;;;;;;;5.40;3.15;;;;;;;;;;5034869;28;20477;-78
2022/08/08 09:11:18;;;;;;;10.82;3.00;;;;;;;;;;5035418;28;20497;-77
2022/08/08 09:13:44;;;;;;;10.55;3.25;;;;;;;;;;5033362;28;20064;-79
2022/08/08 09:16:10;;;;;;;8.32;2.80;;;;;;;;;;5050886;28;20021;-78
2022/08/08 09:18:35;;;;;;;5.70;3.60;;;;;;;;;;5034773;28;20342;-75
2022/08/08 09:21:01;;;;;;;5.38;3.30;;;;;;;;;;5035076;28;20021;-74
2022/08/08 09:23:28;;;;;;;6.07;3.10;;;;;;;;;;5034424;28;20030;-77
2022/08/08 09:26:12;;;;;;;4.50;3.40;;;;;;;;;;5047561;28;20494;-73
2022/08/08 09:28:38;;;;;;;7.60;3.00;;;;;;;;;;5035039;28;20038;-74
2022/08/08 09:31:09;;;;;;;7.88;3.13;;;;;;;;;;5035008;28;20389;-74
2022/08/08 09:33:35;;;;;;;6.75;3.15;;;;;;;;;;5033820;28;20021;-74
2022/08/08 09:36:00;;;;;;;7.47;3.40;;;;;;;;;;5034606;28;20033;-75
2022/08/08 09:38:44;;;;;;;5.53;2.60;;;;;;;;;;5033645;28;20029;-77
2022/08/08 09:41:12;;;;;;;7.00;2.80;;;;;;;;;;5034394;28;20021;-75
2022/08/08 09:43:43;;;;;;;6.65;2.53;;;;;;;;;;5048379;28;20160;-77
2022/08/08 09:46:10;;;;;;;6.00;2.97;;;;;;;;;;5035139;28;20069;-74
2022/08/08 09:48:37;;;;;;;6.63;2.67;;;;;;;;;;5035089;28;20026;-79
2022/08/08 09:51:02;;;;;;;6.72;2.55;;;;;;;;;;5049168;28;20036;-76
2022/08/08 09:53:36;;;;;;;6.40;3.13;;;;;;;;;;5034249;28;20017;-75
2022/08/08 09:56:06;;;;;;;5.75;2.70;;;;;;;;;;5042201;28;20018;-77
2022/08/08 09:58:38;;;;;;;6.18;2.90;;;;;;;;;;5048687;28;20033;-75
2022/08/08 10:01:05;;;;;;;5.97;3.72;;;;;;;;;;5034083;28;20034;-77
2022/08/08 10:03:34;;;;;;;7.15;3.03;;;;;;;;;;5049651;28;20126;-76
2022/08/08 10:05:59;;;;;;;5.43;2.55;;;;;;;;;;5033995;28;20501;-73
2022/08/08 10:08:25;;;;;;;10.00;4.32;;;;;;;;;;5034536;28;20028;-79
2022/08/08 10:10:56;;;;;;;6.18;2.50;;;;;;;;;;5035022;28;20034;-78
2022/08/08 10:13:27;;;;;;;6.10;2.80;;;;;;;;;;5034372;28;20420;-77
2022/08/08 10:15:53;;;;;;;7.82;2.60;;;;;;;;;;5034965;28;20474;-74
2022/08/08 10:18:25;;;;;;;6.03;2.80;;;;;;;;;;5049505;28;20029;-78
2022/08/08 10:20:54;;;;;;;5.35;2.55;;;;;;;;;;5033629;28;20021;-75
2022/08/08 10:23:35;;;;;;;6.63;2.35;;;;;;;;;;5034323;28;20337;-78
2022/08/08 10:26:01;;;;;;;6.93;2.65;;;;;;;;;;5015049;28;20026;-76
2022/08/08 10:28:28;;;;;;;6.10;3.00;;;;;;;;;;5014616;28;20052;-78
2022/08/08 10:30:56;;;;;;;6.15;2.60;;;;;;;;;;5030101;28;20013;-76
2022/08/08 10:33:33;;;;;;;9.27;3.35;;;;;;;;;;5034532;28;20028;-76
2022/08/08 10:36:00;;;;;;;4.68;2.45;;;;;;;;;;5032201;28;20431;-75
2022/08/08 10:38:29;;;;;;;9.57;3.13;;;;;;;;;;5033940;28;20025;-75
2022/08/08 10:40:55;;;;;;;4.30;1.92;;;;;;;;;;5038182;28;20365;-78
2022/08/08 10:43:20;;;;;;;3.42;1.90;;;;;;;;;;5039922;28;20033;-75
2022/08/08 10:45:46;;;;;;;4.95;2.42;;;;;;;;;;5049550;28;20501;-78
2022/08/08 10:48:14;;;;;;;9.15;2.83;;;;;;;;;;5034061;28;20112;-75
2022/08/08 10:50:39;;;;;;;7.18;2.38;;;;;;;;;;5034006;28;20032;-78
2022/08/08 10:53:05;;;;;;;5.07;2.47;;;;;;;;;;5034440;28;20021;-76
2022/08/08 10:55:31;;;;;;;4.07;1.92;;;;;;;;;;5048647;28;20060;-78
2022/08/08 10:57:59;;;;;;;5.05;2.13;;;;;;;;;;5040169;28;20041;-75
2022/08/08 11:00:25;;;;;;;6.95;2.28;;;;;;;;;;5039841;28;20025;-79
2022/08/08 11:02:50;;;;;;;6.05;2.90;;;;;;;;;;5033093;28;20039;-74
2022/08/08 11:05:16;;;;;;;8.90;2.50;;;;;;;;;;5047689;28;20037;-75
2022/08/08 11:07:46;;;;;;;3.78;2.10;;;;;;;;;;5026962;28;20064;-77
2022/08/08 11:10:12;;;;;;;6.85;2.60;;;;;;;;;;5048420;28;20029;-76
2022/08/08 11:12:45;;;;;;;4.80;2.22;;;;;;;;;;5032965;28;20087;-74
2022/08/08 11:15:14;;;;;;;4.03;2.28;;;;;;;;;;5053991;28;20078;-75
2022/08/08 11:17:40;;;;;;;7.35;2.88;;;;;;;;;;5043008;28;20539;-75
2022/08/08 11:20:08;;;;;;;5.97;2.10;;;;;;;;;;5033467;28;20025;-75
2022/08/08 11:22:33;;;;;;;3.78;2.08;;;;;;;;;;5033163;28;20052;-77
2022/08/08 11:25:00;;;;;;;5.10;1.92;;;;;;;;;;5033605;28;20037;-79
2022/08/08 11:27:28;;;;;;;6.20;2.47;;;;;;;;;;5032320;28;20500;-75
2022/08/08 11:29:56;;;;;;;5.88;2.50;;;;;;;;;;5048044;28;20511;-77
2022/08/08 11:32:24;;;;;;;4.43;2.20;;;;;;;;;;5055126;28;20029;-75
2022/08/08 11:34:54;;;;;;;3.38;1.67;;;;;;;;;;5036679;28;20116;-77
2022/08/08 11:37:19;;;;;;;3.10;1.95;;;;;;;;;;5047980;28;20428;-75
2022/08/08 11:39:45;;;;;;;5.68;2.33;;;;;;;;;;5033060;28;20083;-75
2022/08/08 11:42:11;;;;;;;3.75;1.92;;;;;;;;;;5031763;28;20032;-78
2022/08/08 11:44:38;;;;;;;3.10;1.73;;;;;;;;;;5048116;28;20060;-77
2022/08/08 11:47:03;;;;;;;5.15;2.30;;;;;;;;;;5047999;28;20025;-76
2022/08/08 11:49:28;;;;;;;9.95;2.20;;;;;;;;;;5031357;28;20029;-77
2022/08/08 11:51:57;;;;;;;8.10;2.45;;;;;;;;;;5032349;28;20095;-76
2022/08/08 11:54:32;;;;;;;6.18;2.05;;;;;;;;;;5031017;28;20033;-76
2022/08/08 11:57:10;;;;;;;5.78;2.95;;;;;;;;;;5037814;28;20022;-79
2022/08/08 11:59:41;;;;;;;5.90;2.15;;;;;;;;;;5047737;28;20104;-77
2022/08/08 12:02:06;;;;;;;5.55;2.10;;;;;;;;;;5031704;28;20480;-74
2022/08/08 12:04:32;;;;;;;6.13;2.25;;;;;;;;;;5032359;28;20037;-77
2022/08/08 12:07:06;;;;;;;6.03;2.20;;;;;;;;;;5032156;28;20029;-74
2022/08/08 12:09:32;;;;;;;4.13;1.77;;;;;;;;;;5033300;28;20075;-77
2022/08/08 12:11:57;;;;;;;3.22;2.17;;;;;;;;;;5032283;28;20041;-77
2022/08/08 12:14:25;;;;;;;6.28;2.42;;;;;;;;;;5033019;28;20052;-74
2022/08/08 12:16:52;;;;;;;7.10;2.40;;;;;;;;;;5032484;28;20431;-75
2022/08/08 12:19:18;;;;;;;4.05;2.47;;;;;;;;;;5032422;28;20037;-77
2022/08/08 12:21:43;;;;;;;5.95;2.70;;;;;;;;;;5032717;28;20071;-75
2022/08/08 12:24:13;;;;;;;11.32;2.65;;;;;;;;;;5047611;28;20449;-75
2022/08/08 12:26:42;;;;;;;9.07;3.00;;;;;;;;;;5031075;28;20044;-77
2022/08/08 12:29:27;;;;;;;4.63;2.30;;;;;;;;;;5028215;28;20117;-77
2022/08/08 12:32:11;;;;;;;6.43;2.50;;;;;;;;;;5023766;28;20067;-76
2022/08/08 12:34:49;;;;;;;6.35;3.28;;;;;;;;;;5047830;28;20559;-78
2022/08/08 12:37:28;;;;;;;7.20;2.28;;;;;;;;;;5032791;28;20421;-77
2022/08/08 12:39:53;;;;;;;5.28;2.70;;;;;;;;;;5032489;28;20116;-74
2022/08/08 12:42:19;;;;;;;3.75;2.53;;;;;;;;;;5045868;28;20088;-78
2022/08/08 12:44:44;;;;;;;6.97;2.50;;;;;;;;;;5032244;28;20083;-76
2022/08/08 12:47:10;;;;;;;7.50;2.72;;;;;;;;;;5032502;28;20424;-75
2022/08/08 12:49:36;;;;;;;3.67;2.47;;;;;;;;;;5042647;28;20125;-78
2022/08/08 12:52:02;;;;;;;5.82;2.08;;;;;;;;;;5032620;28;20104;-75
2022/08/08 12:54:31;;;;;;;4.40;2.38;;;;;;;;;;5032594;28;20088;-76
2022/08/08 12:56:57;;;;;;;9.02;2.45;;;;;;;;;;5041752;28;20441;-77
2022/08/08 12:59:23;;;;;;;4.47;1.92;;;;;;;;;;5035882;28;20072;-77
2022/08/08 13:01:50;;;;;;;6.18;2.33;;;;;;;;;;5035797;28;20528;-78
2022/08/08 13:04:18;;;;;;;7.10;3.28;;;;;;;;;;5036782;28;20033;-78
2022/08/08 13:07:04;;;;;;;3.30;2.38;;;;;;;;;;5050937;28;20068;-76
2022/08/08 13:09:37;;;;;;;5.53;2.75;;;;;;;;;;5035213;28;20041;-78
2022/08/08 13:12:29;;;;;;;5.75;3.20;;;;;;;;;;5035913;28;20330;-75
2022/08/08 13:14:55;;;;;;;5.35;2.33;;;;;;;;;;5041936;28;20030;-76
2022/08/08 13:17:22;;;;;;;3.95;2.50;;;;;;;;;;5020073;28;20026;-78
2022/08/08 13:19:48;;;;;;;8.70;3.25;;;;;;;;;;5035474;28;20032;-78
2022/08/08 13:22:16;;;;;;;3.90;2.85;;;;;;;;;;5035840;28;20026;-78
2022/08/08 13:24:41;;;;;;;6.82;2.72;;;;;;;;;;5035804;28;20041;-76
2022/08/08 13:27:08;;;;;;;4.65;2.72;;;;;;;;;;5051054;28;20017;-75
2022/08/08 13:29:46;;;;;;;5.90;2.38;;;;;;;;;;5036230;28;20101;-78
2022/08/08 13:32:11;;;;;;;5.10;2.28;;;;;;;;;;5036083;28;20040;-78
2022/08/08 13:34:39;;;;;;;4.80;2.30;;;;;;;;;;5034668;28;20400;-78
2022/08/08 13:37:06;;;;;;;6.47;2.70;;;;;;;;;;5034611;28;20029;-76
2022/08/08 13:39:31;;;;;;;6.20;2.03;;;;;;;;;;5035512;28;20473;-75
2022/08/08 13:41:57;;;;;;;9.63;2.55;;;;;;;;;;5065804;28;20040;-78
2022/08/08 13:44:25;;;;;;;6.20;2.80;;;;;;;;;;5066657;28;20029;-76
2022/08/08 13:46:57;;;;;;;6.78;2.30;;;;;;;;;;5033944;28;20040;-77
2022/08/08 13:49:24;;;;;;;6.93;2.95;;;;;;;;;;5050041;28;20036;-74
2022/08/08 13:51:53;;;;;;;4.53;2.85;;;;;;;;;;5037258;28;20026;-77
2022/08/08 13:54:22;;;;;;;5.70;2.35;;;;;;;;;;5050093;28;20013;-77
2022/08/08 13:56:57;;;;;;;4.35;2.35;;;;;;;;;;5026605;28;20104;-75
2022/08/08 13:59:43;;;;;;;3.63;2.13;;;;;;;;;;5034358;28;20030;-75
2022/08/08 14:02:27;;;;;;;5.32;2.15;;;;;;;;;;5033474;28;20053;-77
2022/08/08 14:04:52;;;;;;;7.75;2.50;;;;;;;;;;5036683;28;20448;-77
2022/08/08 14:07:19;;;;;;;4.20;2.22;;;;;;;;;;5041861;28;20043;-77
2022/08/08 14:09:44;;;;;;;7.30;2.20;;;;;;;;;;5033418;28;20397;-74
2022/08/08 14:12:13;;;;;;;5.33;2.40;;;;;;;;;;5032525;28;20053;-77
2022/08/08 14:14:39;;;;;;;7.35;2.95;;;;;;;;;;5033846;28;20261;-77
2022/08/08 14:17:05;;;;;;;10.95;2.40;;;;;;;;;;5048919;28;20080;-75
2022/08/08 14:19:34;;;;;;;3.42;2.25;;;;;;;;;;5033452;28;20018;-75
2022/08/08 14:21:59;;;;;;;5.43;2.38;;;;;;;;;;5033923;28;20059;-79
2022/08/08 14:24:31;;;;;;;5.05;2.75;;;;;;;;;;5033682;28;20097;-75
2022/08/08 14:26:56;;;;;;;9.23;2.83;;;;;;;;;;5033128;28;20064;-78
2022/08/08 14:29:22;;;;;;;5.85;2.97;;;;;;;;;;5032275;28;20065;-75
2022/08/08 14:31:50;;;;;;;9.43;2.40;;;;;;;;;;5033427;28;20033;-77
2022/08/08 14:34:19;;;;;;;9.40;3.40;;;;;;;;;;5048024;28;20036;-77
2022/08/08 14:36:47;;;;;;;5.10;3.08;;;;;;;;;;5031162;28;20045;-76
2022/08/08 14:39:16;;;;;;;9.25;2.78;;;;;;;;;;5039206;28;20110;-75
2022/08/08 14:41:43;;;;;;;3.03;2.13;;;;;;;;;;5052283;28;20059;-78
2022/08/08 14:44:09;;;;;;;7.63;3.28;;;;;;;;;;5045977;28;20021;-77
2022/08/08 14:46:34;;;;;;;5.65;2.20;;;;;;;;;;5033009;28;20033;-77
2022/08/08 14:49:04;;;;;;;4.18;2.60;;;;;;;;;;5032604;28;20026;-78
2022/08/08 14:51:37;;;;;;;4.93;2.47;;;;;;;;;;5031347;28;20080;-75
2022/08/08 14:54:03;;;;;;;4.93;2.97;;;;;;;;;;5033191;28;20060;-75
2022/08/08 14:56:28;;;;;;;4.55;1.95;;;;;;;;;;5041528;28;20022;-74